Time;durP1;ratioP1;P1;durP2;ratioP2;P2;SDS_P1;SDS_P2;PMS_P1;PMS_P2;Temp;Humidity;BMP_temperature;BMP_pressure;BME280_temperature;BME280_humidity;BME280_pressure;Samples;Min_cycle;Max_cycle;Signal;HPM_P1;HPM_P2
2023/12/20 00:00:37;;;;;;;11.23;2.60;;;7.00;99.90;;;;;;6300907;22;20019;-79
2023/12/20 00:03:04;;;;;;;9.68;3.13;;;7.00;99.90;;;;;;6301151;22;20078;-79
2023/12/20 00:05:32;;;;;;;8.52;2.00;;;7.00;99.90;;;;;;6301126;22;20015;-79
2023/12/20 00:07:57;;;;;;;8.30;2.03;;;7.00;99.90;;;;;;6301117;22;20015;-79
2023/12/20 00:10:23;;;;;;;6.90;2.17;;;7.00;99.90;;;;;;6301470;22;20023;-79
2023/12/20 00:12:49;;;;;;;11.20;2.08;;;7.00;99.90;;;;;;6300763;22;20203;-79
2023/12/20 00:15:14;;;;;;;10.68;2.33;;;7.00;99.90;;;;;;6301087;22;20325;-79
2023/12/20 00:17:40;;;;;;;12.10;2.67;;;7.00;99.90;;;;;;6302751;22;20095;-79
2023/12/20 00:20:07;;;;;;;7.70;2.22;;;7.00;99.90;;;;;;6300999;22;20020;-79
2023/12/20 00:22:32;;;;;;;10.48;3.20;;;7.00;99.90;;;;;;6302665;22;20011;-79
2023/12/20 00:24:58;;;;;;;10.43;2.20;;;7.00;99.90;;;;;;6302374;22;20315;-79
2023/12/20 00:27:23;;;;;;;5.65;2.00;;;7.00;99.90;;;;;;6301956;22;20011;-79
2023/12/20 00:29:50;;;;;;;10.02;2.40;;;7.00;99.90;;;;;;6302711;22;20063;-79
2023/12/20 00:32:16;;;;;;;17.38;2.97;;;7.00;99.90;;;;;;6300561;22;20458;-80
2023/12/20 00:34:42;;;;;;;6.10;2.00;;;7.00;99.90;;;;;;6300940;22;20347;-79
2023/12/20 00:37:08;;;;;;;7.50;2.13;;;7.00;99.90;;;;;;6300477;22;20019;-79
2023/12/20 00:39:34;;;;;;;11.43;3.00;;;7.00;99.90;;;;;;6300414;22;20106;-78
2023/12/20 00:42:00;;;;;;;8.88;2.13;;;6.90;99.90;;;;;;6274544;22;20092;-79
2023/12/20 00:44:26;;;;;;;10.93;2.80;;;6.90;99.90;;;;;;6300680;22;20022;-79
2023/12/20 00:46:51;;;;;;;10.52;3.10;;;7.00;99.90;;;;;;6300430;22;20019;-79
2023/12/20 00:49:17;;;;;;;10.45;2.00;;;6.90;99.90;;;;;;6300668;22;20021;-79
2023/12/20 00:51:43;;;;;;;13.27;2.33;;;6.90;99.90;;;;;;6300513;22;20351;-79
2023/12/20 00:54:09;;;;;;;10.27;2.20;;;6.90;99.90;;;;;;6300532;22;20022;-79
2023/12/20 00:56:35;;;;;;;9.27;2.75;;;6.80;99.90;;;;;;6300686;22;20011;-79
2023/12/20 00:59:01;;;;;;;9.18;2.70;;;6.90;99.90;;;;;;6302344;22;20019;-79
2023/12/20 01:01:26;;;;;;;9.07;2.60;;;6.90;99.90;;;;;;6304360;22;20079;-79
2023/12/20 01:03:52;;;;;;;8.05;2.70;;;6.80;99.90;;;;;;6302158;22;20111;-79
2023/12/20 01:06:19;;;;;;;7.35;2.63;;;6.90;99.90;;;;;;6302705;22;20471;-79
2023/12/20 01:08:45;;;;;;;11.23;2.15;;;6.80;99.90;;;;;;6304398;22;20011;-78
2023/12/20 01:11:10;;;;;;;11.18;2.97;;;6.80;99.90;;;;;;6304406;22;20055;-78
2023/12/20 01:13:36;;;;;;;5.72;2.10;;;6.80;99.90;;;;;;6302814;22;20679;-78
2023/12/20 01:16:02;;;;;;;7.13;2.38;;;6.80;99.90;;;;;;6302493;22;20053;-81
2023/12/20 01:18:28;;;;;;;9.10;2.38;;;6.80;99.90;;;;;;6302503;22;20319;-79
2023/12/20 01:20:54;;;;;;;9.02;2.78;;;6.70;99.90;;;;;;6302093;22;20094;-79
2023/12/20 01:23:19;;;;;;;14.82;2.90;;;6.80;99.90;;;;;;6301924;22;20015;-79
2023/12/20 01:25:45;;;;;;;12.88;2.72;;;6.90;99.90;;;;;;6302064;22;20021;-79
2023/12/20 01:28:11;;;;;;;5.80;2.20;;;6.80;99.90;;;;;;6303991;22;20374;-79
2023/12/20 01:30:36;;;;;;;17.58;2.88;;;6.90;99.90;;;;;;6276420;22;20019;-79
2023/12/20 01:33:02;;;;;;;8.75;2.28;;;6.90;99.90;;;;;;6302050;22;20094;-79
2023/12/20 01:35:28;;;;;;;15.30;2.45;;;6.90;99.90;;;;;;6302309;22;20019;-79
2023/12/20 01:37:56;;;;;;;15.85;2.70;;;6.90;99.90;;;;;;6302058;22;20018;-79
2023/12/20 01:40:22;;;;;;;17.70;3.03;;;6.80;99.90;;;;;;6301988;22;20023;-79
2023/12/20 01:43:01;;;;;;;11.18;2.55;;;6.80;99.90;;;;;;6302565;22;20050;-79
2023/12/20 01:45:27;;;;;;;17.13;2.80;;;6.80;99.90;;;;;;6302528;22;20015;-79
2023/12/20 01:47:54;;;;;;;14.77;2.85;;;6.80;99.90;;;;;;6302447;22;20011;-79
2023/12/20 01:50:21;;;;;;;18.42;2.90;;;6.90;99.90;;;;;;6302205;22;20030;-79
2023/12/20 01:52:47;;;;;;;15.45;2.88;;;6.90;99.90;;;;;;6302095;22;20034;-79
2023/12/20 01:55:15;;;;;;;13.40;2.95;;;6.90;99.90;;;;;;6301909;22;20026;-79
2023/12/20 01:57:42;;;;;;;13.25;2.47;;;6.80;99.90;;;;;;6301777;22;20026;-79
2023/12/20 02:00:09;;;;;;;9.43;3.35;;;6.90;99.90;;;;;;6301889;22;20057;-79
2023/12/20 02:02:38;;;;;;;12.70;2.90;;;6.90;99.90;;;;;;6301722;22;20014;-79
2023/12/20 02:05:05;;;;;;;13.93;2.45;;;6.80;99.90;;;;;;6301633;22;20049;-79
2023/12/20 02:07:31;;;;;;;20.08;2.95;;;6.80;99.90;;;;;;6301637;22;20015;-79
2023/12/20 02:09:57;;;;;;;13.98;3.30;;;6.80;99.90;;;;;;6301157;22;20103;-79
2023/12/20 02:12:22;;;;;;;18.30;2.90;;;6.90;99.90;;;;;;6301831;22;20470;-79
2023/12/20 02:14:49;;;;;;;14.45;2.63;;;6.80;99.90;;;;;;6301677;22;20019;-79
2023/12/20 02:17:16;;;;;;;10.63;2.25;;;6.80;99.90;;;;;;6301656;22;20087;-79
2023/12/20 02:19:41;;;;;;;11.90;2.35;;;6.80;99.90;;;;;;6301360;22;20085;-78
2023/12/20 02:22:11;;;;;;;18.10;2.70;;;6.80;99.90;;;;;;6301896;22;20023;-79
2023/12/20 02:24:39;;;;;;;14.68;3.13;;;6.80;99.90;;;;;;6301392;22;20019;-79
2023/12/20 02:27:07;;;;;;;14.82;3.50;;;6.90;99.90;;;;;;6303246;22;20031;-79
2023/12/20 02:29:36;;;;;;;18.55;3.30;;;6.90;99.90;;;;;;6301394;22;20076;-79
2023/12/20 02:32:02;;;;;;;14.15;3.47;;;6.90;99.90;;;;;;6301438;22;20345;-79
2023/12/20 02:34:29;;;;;;;15.75;2.85;;;6.80;99.90;;;;;;6301566;22;20015;-80
2023/12/20 02:36:54;;;;;;;12.95;2.60;;;6.90;99.90;;;;;;6303088;22;20051;-79
2023/12/20 02:39:22;;;;;;;15.52;3.53;;;6.90;99.90;;;;;;6302932;22;20023;-79
2023/12/20 02:41:48;;;;;;;13.63;2.65;;;7.00;99.90;;;;;;6303590;22;20026;-78
2023/12/20 02:44:14;;;;;;;20.55;2.78;;;6.90;99.90;;;;;;6303314;22;20011;-78
2023/12/20 02:46:40;;;;;;;14.40;2.60;;;6.90;99.90;;;;;;6301638;22;20096;-78
2023/12/20 02:49:06;;;;;;;7.97;2.60;;;6.90;99.90;;;;;;6301830;22;20078;-79
2023/12/20 02:51:32;;;;;;;14.40;2.80;;;6.90;99.90;;;;;;6303689;22;20023;-79
2023/12/20 02:53:57;;;;;;;16.65;2.95;;;6.80;99.90;;;;;;6275484;22;20019;-79
2023/12/20 02:56:23;;;;;;;8.75;3.30;;;6.80;99.90;;;;;;6303180;22;20284;-79
2023/12/20 02:58:49;;;;;;;11.80;2.03;;;6.90;99.90;;;;;;6301252;22;20022;-79
2023/12/20 03:01:14;;;;;;;15.77;3.65;;;6.90;99.90;;;;;;6301235;22;20015;-78
2023/12/20 03:03:40;;;;;;;8.80;2.40;;;6.90;99.90;;;;;;6301066;22;20354;-79
2023/12/20 03:06:06;;;;;;;15.55;3.50;;;6.90;99.90;;;;;;6303389;22;20121;-79
2023/12/20 03:08:31;;;;;;;14.18;3.00;;;6.90;99.90;;;;;;6301048;22;20019;-79
2023/12/20 03:10:59;;;;;;;11.38;2.72;;;6.90;99.90;;;;;;6303314;22;20092;-79
2023/12/20 03:13:25;;;;;;;8.35;2.47;;;6.90;99.90;;;;;;6303333;22;20348;-79
2023/12/20 03:15:51;;;;;;;10.55;2.20;;;6.90;99.90;;;;;;6301134;22;20026;-79
2023/12/20 03:18:17;;;;;;;15.32;3.42;;;6.80;99.90;;;;;;6301153;22;20023;-79
2023/12/20 03:20:43;;;;;;;14.40;3.05;;;6.90;99.90;;;;;;6300927;22;20455;-79
2023/12/20 03:23:09;;;;;;;11.18;2.78;;;6.90;99.90;;;;;;6300858;22;20033;-79
2023/12/20 03:25:35;;;;;;;21.60;3.47;;;6.90;99.90;;;;;;6275564;22;20080;-79
2023/12/20 03:28:00;;;;;;;15.50;2.88;;;6.90;99.90;;;;;;6300960;22;20466;-79
2023/12/20 03:30:26;;;;;;;18.83;3.30;;;6.90;99.90;;;;;;6300707;22;20019;-79
2023/12/20 03:32:52;;;;;;;13.50;3.15;;;7.00;99.90;;;;;;6300826;22;20026;-80
2023/12/20 03:35:17;;;;;;;18.52;3.15;;;7.00;99.90;;;;;;6300952;22;20060;-79
2023/12/20 03:37:43;;;;;;;15.68;3.00;;;7.00;99.90;;;;;;6300370;22;20038;-80
2023/12/20 03:40:09;;;;;;;17.05;3.20;;;6.90;99.90;;;;;;6300739;22;20102;-79
2023/12/20 03:42:35;;;;;;;16.95;3.13;;;6.90;99.90;;;;;;6302736;22;20019;-80
2023/12/20 03:45:01;;;;;;;19.17;4.10;;;6.80;99.90;;;;;;6302439;22;20390;-79
2023/12/20 03:47:26;;;;;;;18.30;3.47;;;6.90;99.90;;;;;;6302761;22;20111;-79
2023/12/20 03:49:53;;;;;;;16.33;3.28;;;6.90;99.90;;;;;;6300736;22;20453;-79
2023/12/20 03:52:18;;;;;;;18.50;4.18;;;6.90;99.90;;;;;;6300529;22;20015;-79
2023/12/20 03:54:44;;;;;;;21.90;3.47;;;6.90;99.90;;;;;;6300861;22;20462;-80
2023/12/20 03:57:10;;;;;;;16.30;3.55;;;6.90;99.90;;;;;;6300608;22;20054;-80
2023/12/20 03:59:39;;;;;;;20.85;4.07;;;6.90;99.90;;;;;;6300606;22;20050;-79
2023/12/20 04:02:04;;;;;;;22.23;3.72;;;6.90;99.90;;;;;;6300667;22;20339;-79
2023/12/20 04:04:30;;;;;;;18.58;3.80;;;6.90;99.90;;;;;;6302623;22;20020;-79
2023/12/20 04:06:56;;;;;;;24.08;4.43;;;6.90;99.90;;;;;;6302297;22;20034;-79
2023/12/20 04:09:21;;;;;;;17.05;3.85;;;6.90;99.90;;;;;;6302939;22;20447;-80
2023/12/20 04:11:47;;;;;;;17.33;3.55;;;6.90;99.90;;;;;;6302862;22;20091;-80
2023/12/20 04:14:13;;;;;;;18.70;3.40;;;6.90;99.90;;;;;;6302290;22;20011;-79
2023/12/20 04:16:39;;;;;;;21.50;4.72;;;7.00;99.90;;;;;;6274908;22;20023;-80
2023/12/20 04:19:04;;;;;;;27.80;4.43;;;7.00;99.90;;;;;;6302429;22;20015;-80
2023/12/20 04:21:30;;;;;;;22.40;3.92;;;7.00;99.90;;;;;;6302625;22;20011;-80
2023/12/20 04:23:56;;;;;;;15.32;3.90;;;6.90;99.90;;;;;;6302740;22;20017;-80
2023/12/20 04:26:21;;;;;;;14.68;3.25;;;7.00;99.90;;;;;;6302458;22;20019;-80
2023/12/20 04:28:47;;;;;;;20.08;3.95;;;7.00;99.90;;;;;;6300523;22;20015;-79
2023/12/20 04:31:13;;;;;;;21.25;3.83;;;7.00;99.90;;;;;;6300810;22;20082;-80
2023/12/20 04:33:39;;;;;;;20.45;3.65;;;7.00;99.90;;;;;;6302473;22;20011;-80
2023/12/20 04:36:05;;;;;;;22.17;4.38;;;7.00;99.90;;;;;;6302591;22;20621;-79
2023/12/20 04:38:31;;;;;;;19.33;4.78;;;7.00;99.90;;;;;;6302451;22;20039;-79
2023/12/20 04:40:57;;;;;;;21.08;3.55;;;7.00;99.90;;;;;;6302502;22;20088;-79
2023/12/20 04:43:22;;;;;;;17.15;4.05;;;7.10;99.90;;;;;;6302475;22;20012;-79
2023/12/20 04:45:48;;;;;;;17.10;3.10;;;7.00;99.90;;;;;;6304709;22;20419;-79
2023/12/20 04:48:13;;;;;;;19.30;3.72;;;7.10;99.90;;;;;;6304393;22;20039;-78
2023/12/20 04:50:39;;;;;;;22.42;3.63;;;7.10;99.90;;;;;;6304497;22;20021;-79
2023/12/20 04:53:05;;;;;;;20.98;3.80;;;7.10;99.90;;;;;;6304562;22;20331;-79
2023/12/20 04:55:31;;;;;;;27.52;4.38;;;7.10;99.90;;;;;;6302637;22;20039;-79
2023/12/20 04:57:57;;;;;;;17.90;3.78;;;7.20;99.90;;;;;;6302472;22;20015;-79
2023/12/20 05:00:22;;;;;;;23.20;3.78;;;7.20;99.90;;;;;;6302698;22;20323;-79
2023/12/20 05:02:48;;;;;;;21.02;4.03;;;7.20;99.90;;;;;;6303002;22;20022;-78
2023/12/20 05:05:15;;;;;;;32.85;5.00;;;7.10;99.90;;;;;;6304992;22;20016;-78
2023/12/20 05:07:40;;;;;;;20.02;5.57;;;7.10;99.90;;;;;;6304578;22;20019;-78
2023/12/20 05:10:08;;;;;;;16.08;3.75;;;7.20;99.90;;;;;;6304356;22;20483;-78
2023/12/20 05:12:34;;;;;;;18.23;4.88;;;7.20;99.90;;;;;;6304727;22;20078;-78
2023/12/20 05:15:00;;;;;;;17.85;3.70;;;7.10;99.90;;;;;;6304286;22;20050;-79
2023/12/20 05:17:25;;;;;;;11.35;3.72;;;7.10;99.90;;;;;;6302058;22;20418;-78
2023/12/20 05:19:52;;;;;;;16.92;3.97;;;7.20;99.90;;;;;;6302287;22;20024;-79
2023/12/20 05:22:19;;;;;;;22.38;4.38;;;7.20;99.90;;;;;;6302261;22;20061;-79
2023/12/20 05:24:44;;;;;;;18.08;4.68;;;7.20;99.90;;;;;;6304240;22;20019;-79
2023/12/20 05:27:11;;;;;;;23.40;4.25;;;7.20;99.90;;;;;;6302050;22;20026;-78
2023/12/20 05:29:37;;;;;;;19.83;4.43;;;7.20;99.90;;;;;;6302188;22;20088;-78
2023/12/20 05:32:04;;;;;;;28.05;4.13;;;7.20;99.90;;;;;;6301794;22;20023;-78
2023/12/20 05:34:30;;;;;;;21.00;3.85;;;7.20;99.90;;;;;;6302176;22;20100;-79
2023/12/20 05:36:57;;;;;;;15.40;3.60;;;7.30;99.90;;;;;;6301918;22;20072;-79
2023/12/20 05:39:23;;;;;;;15.45;3.25;;;7.20;99.90;;;;;;6302007;22;20416;-79
2023/12/20 05:41:48;;;;;;;23.20;4.10;;;7.20;99.90;;;;;;6301652;22;20120;-79
2023/12/20 05:44:14;;;;;;;21.63;4.20;;;7.20;99.90;;;;;;6275542;22;20017;-79
2023/12/20 05:46:40;;;;;;;18.67;3.95;;;7.20;99.90;;;;;;6275801;22;20116;-79
2023/12/20 05:49:06;;;;;;;21.90;4.78;;;7.20;99.90;;;;;;6302033;22;20026;-78
2023/12/20 05:51:32;;;;;;;23.75;3.95;;;7.20;99.90;;;;;;6302004;22;20045;-79
2023/12/20 05:53:58;;;;;;;21.30;4.05;;;7.20;99.90;;;;;;6301920;22;20054;-79
2023/12/20 05:56:24;;;;;;;17.88;4.15;;;7.20;99.90;;;;;;6301874;22;20018;-79
2023/12/20 05:58:50;;;;;;;17.85;3.88;;;7.30;99.90;;;;;;6301631;22;20043;-79
2023/12/20 06:01:19;;;;;;;24.25;3.90;;;7.30;99.90;;;;;;6301413;22;20019;-78
2023/12/20 06:03:45;;;;;;;20.20;3.90;;;7.30;99.90;;;;;;6303931;22;20417;-78
2023/12/20 06:06:12;;;;;;;25.42;4.57;;;7.30;99.90;;;;;;6303720;22;20011;-79
2023/12/20 06:08:38;;;;;;;20.80;3.80;;;7.30;99.90;;;;;;6301936;22;20478;-79
2023/12/20 06:11:05;;;;;;;18.83;3.95;;;7.40;99.90;;;;;;6301696;22;20107;-80
2023/12/20 06:13:31;;;;;;;21.67;4.22;;;7.30;99.90;;;;;;6303440;22;20014;-80
2023/12/20 06:15:56;;;;;;;30.88;4.68;;;7.30;99.90;;;;;;6303253;22;20011;-79
2023/12/20 06:18:22;;;;;;;20.10;3.40;;;7.30;99.90;;;;;;6275939;22;20109;-80
2023/12/20 06:20:48;;;;;;;17.73;3.28;;;7.40;99.90;;;;;;6301375;22;20334;-80
2023/12/20 06:23:14;;;;;;;22.15;3.55;;;7.40;99.90;;;;;;6303629;22;20335;-79
2023/12/20 06:25:40;;;;;;;28.02;4.45;;;7.40;99.90;;;;;;6301547;22;20638;-79
2023/12/20 06:28:06;;;;;;;23.50;3.80;;;7.40;99.90;;;;;;6301536;22;20128;-79
2023/12/20 06:30:32;;;;;;;17.98;4.35;;;7.40;99.90;;;;;;6303391;22;20031;-79
2023/12/20 06:32:58;;;;;;;23.63;4.03;;;7.40;99.90;;;;;;6301522;22;20349;-81
2023/12/20 06:35:24;;;;;;;24.88;3.88;;;7.40;99.90;;;;;;6301612;22;20042;-79
2023/12/20 06:37:50;;;;;;;13.65;3.80;;;7.40;99.90;;;;;;6301117;22;20030;-78
2023/12/20 06:40:16;;;;;;;24.00;4.07;;;7.30;99.90;;;;;;6301630;22;20030;-79
2023/12/20 06:42:42;;;;;;;14.50;3.47;;;7.40;99.90;;;;;;6301897;22;20058;-78
2023/12/20 06:45:08;;;;;;;15.73;3.88;;;7.40;99.90;;;;;;6301503;22;20015;-78
2023/12/20 06:47:34;;;;;;;16.15;3.33;;;7.40;99.90;;;;;;6302374;22;20031;-78
2023/12/20 06:50:00;;;;;;;17.27;3.80;;;7.40;99.90;;;;;;6301957;22;20015;-77
2023/12/20 06:52:26;;;;;;;17.52;3.53;;;7.40;99.90;;;;;;6301736;22;20022;-78
2023/12/20 06:54:52;;;;;;;20.65;5.03;;;7.50;99.90;;;;;;6301363;22;20015;-78
2023/12/20 06:57:19;;;;;;;22.05;4.25;;;7.40;99.90;;;;;;6301098;22;20094;-78
2023/12/20 06:59:45;;;;;;;33.10;3.83;;;7.50;99.90;;;;;;6305252;22;20107;-78
2023/12/20 07:02:11;;;;;;;23.92;3.80;;;7.50;99.90;;;;;;6308579;22;20015;-78
2023/12/20 07:04:40;;;;;;;18.83;3.95;;;7.50;99.90;;;;;;6307844;22;20018;-77
2023/12/20 07:07:07;;;;;;;23.77;3.45;;;7.50;99.90;;;;;;6282592;22;20022;-77
2023/12/20 07:09:33;;;;;;;21.63;3.90;;;7.50;99.90;;;;;;6307514;22;20015;-78
2023/12/20 07:11:59;;;;;;;17.45;4.10;;;7.50;99.90;;;;;;6307504;22;20022;-78
2023/12/20 07:14:24;;;;;;;23.23;5.38;;;7.50;99.90;;;;;;6301869;22;20015;-78
2023/12/20 07:16:50;;;;;;;18.33;4.05;;;7.50;99.90;;;;;;6302876;22;20027;-77
2023/12/20 07:19:16;;;;;;;19.20;4.07;;;7.50;99.90;;;;;;6301117;22;20012;-80
2023/12/20 07:21:41;;;;;;;16.25;3.80;;;7.60;99.90;;;;;;6302675;22;20113;-79
2023/12/20 07:24:07;;;;;;;24.45;4.30;;;7.60;99.90;;;;;;6301203;22;20030;-80
2023/12/20 07:26:34;;;;;;;23.15;3.78;;;7.60;99.90;;;;;;6301053;22;20026;-79
2023/12/20 07:28:59;;;;;;;12.23;3.47;;;7.60;99.90;;;;;;6300767;22;20392;-80
2023/12/20 07:31:25;;;;;;;18.02;4.05;;;7.60;99.90;;;;;;6300725;22;20243;-80
2023/12/20 07:33:51;;;;;;;20.08;4.38;;;7.60;99.90;;;;;;6303034;22;20015;-79
2023/12/20 07:36:16;;;;;;;21.10;4.65;;;7.60;99.90;;;;;;6300558;22;20418;-80
2023/12/20 07:38:44;;;;;;;26.27;4.53;;;7.60;99.90;;;;;;6302528;22;20019;-79
2023/12/20 07:41:13;;;;;;;18.88;4.25;;;7.60;99.90;;;;;;6302449;22;20022;-79
2023/12/20 07:43:38;;;;;;;25.45;4.25;;;7.60;99.90;;;;;;6300733;22;20015;-79
2023/12/20 07:46:08;;;;;;;15.85;4.32;;;7.60;99.90;;;;;;6302621;22;20328;-79
2023/12/20 07:48:37;;;;;;;20.80;3.97;;;7.70;99.90;;;;;;6303196;22;20261;-79
2023/12/20 07:51:04;;;;;;;17.75;4.57;;;7.70;99.90;;;;;;6301003;22;20015;-81
2023/12/20 07:53:30;;;;;;;17.90;4.15;;;7.70;99.90;;;;;;6303106;22;20056;-80
2023/12/20 07:55:55;;;;;;;16.73;3.80;;;7.70;99.90;;;;;;6301006;22;20160;-81
2023/12/20 07:58:22;;;;;;;26.85;3.55;;;7.70;99.90;;;;;;6300568;22;20066;-79
2023/12/20 08:00:48;;;;;;;16.33;3.47;;;7.70;99.90;;;;;;6301161;22;20019;-78
2023/12/20 08:03:13;;;;;;;22.40;5.18;;;7.70;99.90;;;;;;6302677;22;20289;-80
2023/12/20 08:05:42;;;;;;;22.55;3.88;;;7.80;99.90;;;;;;6301263;22;20015;-81
2023/12/20 08:08:07;;;;;;;25.00;3.65;;;7.70;99.90;;;;;;6300885;22;20026;-80
2023/12/20 08:10:33;;;;;;;20.73;4.40;;;7.70;99.90;;;;;;6302629;22;20011;-80
2023/12/20 08:12:59;;;;;;;24.52;4.10;;;7.80;99.90;;;;;;6300280;22;20046;-80
2023/12/20 08:15:25;;;;;;;18.20;3.53;;;7.70;99.90;;;;;;6300262;22;20113;-81
2023/12/20 08:17:50;;;;;;;26.77;5.40;;;7.70;99.90;;;;;;6302522;22;20351;-81
2023/12/20 08:20:17;;;;;;;17.45;3.70;;;7.70;99.90;;;;;;6302421;22;20328;-79
2023/12/20 08:22:42;;;;;;;21.85;4.80;;;7.70;99.90;;;;;;6274889;22;20086;-78
2023/12/20 08:25:08;;;;;;;19.88;5.72;;;7.80;99.90;;;;;;6274758;22;20051;-78
2023/12/20 08:27:39;;;;;;;23.13;3.88;;;7.80;99.90;;;;;;6302604;22;20007;-79
2023/12/20 08:30:06;;;;;;;15.82;3.75;;;7.80;99.90;;;;;;6300734;22;20102;-78
2023/12/20 08:32:32;;;;;;;18.55;3.95;;;7.80;99.90;;;;;;6300767;22;20045;-78
2023/12/20 08:34:58;;;;;;;25.63;4.18;;;7.80;99.90;;;;;;6302772;22;20015;-78
2023/12/20 08:37:23;;;;;;;17.35;4.55;;;7.80;99.90;;;;;;6302344;22;20023;-78
2023/12/20 08:39:49;;;;;;;21.77;4.07;;;7.80;99.90;;;;;;6300742;22;20440;-78
2023/12/20 08:42:15;;;;;;;29.85;4.47;;;7.80;99.90;;;;;;6302827;22;20086;-78
2023/12/20 08:44:40;;;;;;;26.23;3.90;;;7.90;99.90;;;;;;6300533;22;20339;-78
2023/12/20 08:47:07;;;;;;;21.65;3.90;;;7.90;99.90;;;;;;6300590;22;20597;-77
2023/12/20 08:49:32;;;;;;;24.55;4.20;;;7.90;99.90;;;;;;6300597;22;20011;-78
2023/12/20 08:51:58;;;;;;;20.35;3.38;;;7.90;99.90;;;;;;6302327;22;20372;-78
2023/12/20 08:54:24;;;;;;;21.20;4.50;;;7.90;99.90;;;;;;6300589;22;20018;-77
2023/12/20 08:56:50;;;;;;;20.42;4.43;;;7.90;99.90;;;;;;6300145;22;20102;-78
2023/12/20 08:59:16;;;;;;;20.85;4.80;;;7.90;99.90;;;;;;6300680;22;20061;-77
2023/12/20 09:01:41;;;;;;;17.55;3.65;;;8.00;99.90;;;;;;6302044;22;20072;-77
2023/12/20 09:04:07;;;;;;;22.95;5.05;;;7.90;99.90;;;;;;6300543;22;20016;-78
2023/12/20 09:06:33;;;;;;;20.23;3.58;;;7.90;99.90;;;;;;6300589;22;20350;-78
2023/12/20 09:08:58;;;;;;;23.65;3.78;;;8.00;99.90;;;;;;6302323;22;20068;-78
2023/12/20 09:11:24;;;;;;;20.00;4.20;;;8.00;99.90;;;;;;6302273;22;20108;-78
2023/12/20 09:13:50;;;;;;;29.50;4.65;;;8.00;99.90;;;;;;6299508;22;20057;-78
2023/12/20 09:16:16;;;;;;;29.52;4.63;;;8.00;99.90;;;;;;6300615;22;20025;-77
2023/12/20 09:18:42;;;;;;;24.55;4.28;;;8.00;99.90;;;;;;6301582;22;20019;-77
2023/12/20 09:21:08;;;;;;;20.63;3.65;;;8.10;99.90;;;;;;6302274;22;20023;-77
2023/12/20 09:23:33;;;;;;;23.95;4.15;;;8.10;99.90;;;;;;6302141;22;20102;-77
2023/12/20 09:25:59;;;;;;;22.10;3.50;;;8.10;99.90;;;;;;6302227;22;20097;-77
2023/12/20 09:28:25;;;;;;;23.10;3.42;;;8.10;99.90;;;;;;6302169;22;20090;-77
2023/12/20 09:30:50;;;;;;;24.15;4.40;;;8.10;99.90;;;;;;6302468;22;20389;-84
2023/12/20 09:33:16;;;;;;;19.83;3.97;;;8.10;99.90;;;;;;6302136;22;20015;-84
2023/12/20 09:35:42;;;;;;;22.00;4.47;;;8.10;99.90;;;;;;6302407;22;20118;-83
2023/12/20 09:38:08;;;;;;;27.00;4.00;;;8.10;99.90;;;;;;6301875;22;20100;-84
2023/12/20 09:40:36;;;;;;;28.30;4.13;;;8.10;99.90;;;;;;6302344;22;20115;-83
2023/12/20 09:43:08;;;;;;;23.98;3.60;;;8.10;99.90;;;;;;6302599;22;20015;-84
2023/12/20 09:45:34;;;;;;;26.67;4.67;;;8.10;99.90;;;;;;6304085;22;20025;-84
2023/12/20 09:48:01;;;;;;;17.25;4.57;;;8.10;99.90;;;;;;6302499;22;20489;-84
2023/12/20 09:50:27;;;;;;;27.15;4.13;;;8.20;99.90;;;;;;6302400;22;20041;-84
2023/12/20 09:52:56;;;;;;;27.13;4.90;;;8.20;99.90;;;;;;6302245;22;20030;-85
2023/12/20 09:55:22;;;;;;;19.23;3.95;;;8.20;99.90;;;;;;6302541;22;20086;-84
2023/12/20 09:57:48;;;;;;;19.27;3.83;;;8.20;99.90;;;;;;6304302;22;20084;-84
2023/12/20 10:00:14;;;;;;;17.95;4.07;;;8.10;99.90;;;;;;6304118;22;20109;-83
2023/12/20 10:03:01;;;;;;;21.80;4.03;;;8.20;99.90;;;;;;6302450;22;20023;-79
2023/12/20 10:05:31;;;;;;;10.73;2.30;;;8.00;99.90;;;;;;6302489;22;20108;-80
2023/12/20 10:07:58;;;;;;;6.75;1.98;;;7.70;99.90;;;;;;6303889;22;20140;-82
2023/12/20 10:10:24;;;;;;;9.65;2.40;;;7.50;99.90;;;;;;6302158;22;20466;-79
2023/12/20 10:13:02;;;;;;;7.40;2.30;;;7.30;99.90;;;;;;6276364;22;20041;-79
2023/12/20 10:15:28;;;;;;;7.32;1.83;;;7.30;99.90;;;;;;6302176;22;20019;-81
2023/12/20 10:17:54;;;;;;;7.30;1.90;;;7.20;99.90;;;;;;6304335;22;20018;-78
2023/12/20 10:20:20;;;;;;;7.90;1.85;;;7.20;99.90;;;;;;6276080;22;20059;-77
2023/12/20 10:22:47;;;;;;;9.55;2.10;;;7.20;99.90;;;;;;6301511;22;20011;-79
2023/12/20 10:25:13;;;;;;;7.43;1.65;;;7.20;99.90;;;;;;6301800;22;20011;-77
2023/12/20 10:27:38;;;;;;;10.18;1.90;;;7.20;99.90;;;;;;6303746;22;20107;-79
2023/12/20 10:30:04;;;;;;;8.48;1.90;;;7.30;99.90;;;;;;6301263;22;20076;-77
2023/12/20 10:32:31;;;;;;;5.55;2.03;;;7.20;99.90;;;;;;6301133;22;20391;-79
2023/12/20 10:34:57;;;;;;;7.97;2.88;;;7.20;99.90;;;;;;6303305;22;20088;-78
2023/12/20 10:37:23;;;;;;;7.72;1.80;;;7.20;99.90;;;;;;6302747;22;20378;-79
2023/12/20 10:39:51;;;;;;;8.80;1.90;;;7.30;99.90;;;;;;6302966;22;20019;-80
2023/12/20 10:42:20;;;;;;;9.57;2.08;;;7.30;99.90;;;;;;6301103;22;20019;-78
2023/12/20 10:44:47;;;;;;;7.05;1.95;;;7.20;99.90;;;;;;6302794;22;20028;-80
2023/12/20 10:47:13;;;;;;;10.65;2.72;;;7.30;99.90;;;;;;6301406;22;20090;-78
2023/12/20 10:49:40;;;;;;;6.45;1.80;;;7.30;99.90;;;;;;6302812;22;20390;-79
2023/12/20 10:52:06;;;;;;;8.10;2.35;;;7.30;99.90;;;;;;6300921;22;20045;-79
2023/12/20 10:54:32;;;;;;;13.75;4.80;;;7.30;99.90;;;;;;6307146;22;20015;-78
2023/12/20 10:57:00;;;;;;;10.27;3.00;;;7.30;99.90;;;;;;6309253;22;20023;-79
2023/12/20 10:59:29;;;;;;;9.77;2.00;;;7.30;99.90;;;;;;6301013;22;20403;-79
2023/12/20 11:01:57;;;;;;;6.90;2.33;;;7.30;99.90;;;;;;6301307;22;20019;-80
2023/12/20 11:04:28;;;;;;;9.52;2.20;;;7.40;99.90;;;;;;6301124;22;20084;-79
2023/12/20 11:07:16;;;;;;;5.97;1.97;;;7.40;99.90;;;;;;6302760;22;20019;-78
2023/12/20 11:09:49;;;;;;;9.20;2.17;;;7.40;99.90;;;;;;6301324;22;20015;-79
2023/12/20 11:12:49;;;;;;;10.38;2.50;;;7.50;99.90;;;;;;6303078;22;20015;-78
2023/12/20 11:15:16;;;;;;;9.25;2.22;;;7.40;99.90;;;;;;6300978;22;20023;-79
2023/12/20 11:17:45;;;;;;;10.68;2.05;;;7.40;99.90;;;;;;6305030;22;20015;-81
2023/12/20 11:20:12;;;;;;;8.95;2.15;;;7.40;99.90;;;;;;6300694;22;20019;-78
2023/12/20 11:22:41;;;;;;;9.27;2.40;;;7.40;99.90;;;;;;6275675;22;20015;-81
2023/12/20 11:25:10;;;;;;;8.88;1.90;;;7.50;99.90;;;;;;6301094;22;20019;-78
2023/12/20 11:27:56;;;;;;;9.63;2.22;;;7.50;99.90;;;;;;6301139;22;20019;-80
2023/12/20 11:30:22;;;;;;;11.85;2.40;;;7.50;99.90;;;;;;6298942;22;20080;-80
2023/12/20 11:32:47;;;;;;;12.25;2.78;;;7.50;99.90;;;;;;6301170;22;20370;-81
2023/12/20 11:35:13;;;;;;;10.90;2.20;;;7.50;99.90;;;;;;6302681;22;20038;-81
2023/12/20 11:37:43;;;;;;;7.75;2.85;;;7.50;99.90;;;;;;6302521;22;20019;-81
2023/12/20 11:40:14;;;;;;;8.70;2.55;;;7.50;99.90;;;;;;6302612;22;20027;-79
2023/12/20 11:42:41;;;;;;;4.75;2.10;;;7.50;99.90;;;;;;6300708;22;20034;-80
2023/12/20 11:45:27;;;;;;;7.45;2.13;;;7.60;99.90;;;;;;6301088;22;20104;-82
2023/12/20 11:47:55;;;;;;;8.10;2.90;;;7.60;99.90;;;;;;6301041;22;20026;-83
2023/12/20 11:50:22;;;;;;;13.73;3.17;;;7.60;99.90;;;;;;6300788;22;20025;-81
2023/12/20 11:52:49;;;;;;;12.45;2.88;;;7.60;99.90;;;;;;6301249;22;20034;-83
2023/12/20 11:55:15;;;;;;;12.50;4.00;;;7.60;99.90;;;;;;6301225;22;20015;-81
2023/12/20 11:57:42;;;;;;;11.90;2.35;;;7.60;99.90;;;;;;6300877;22;20015;-81
2023/12/20 12:00:08;;;;;;;10.27;2.70;;;7.60;99.90;;;;;;6300882;22;20031;-81
2023/12/20 12:02:34;;;;;;;8.63;2.88;;;7.60;99.90;;;;;;6300647;22;20027;-80
2023/12/20 12:05:00;;;;;;;14.20;3.83;;;7.60;99.90;;;;;;6301483;22;20069;-80
2023/12/20 12:07:26;;;;;;;16.38;5.20;;;7.90;99.90;;;;;;6303478;22;20111;-80
2023/12/20 12:09:52;;;;;;;15.60;4.05;;;7.90;99.90;;;;;;6300989;22;20018;-78
2023/12/20 12:12:19;;;;;;;11.25;2.88;;;7.80;99.90;;;;;;6302703;22;20343;-83
2023/12/20 12:14:49;;;;;;;16.73;3.08;;;7.80;99.90;;;;;;6301220;22;20015;-79
2023/12/20 12:17:15;;;;;;;13.88;3.25;;;7.90;99.90;;;;;;6302812;22;20054;-77
2023/12/20 12:19:42;;;;;;;13.02;3.25;;;7.90;99.90;;;;;;6300966;22;20384;-82
2023/12/20 12:22:12;;;;;;;16.30;4.30;;;7.90;99.90;;;;;;6301232;22;20027;-82
2023/12/20 12:24:46;;;;;;;9.15;2.58;;;8.00;99.90;;;;;;6303092;22;20012;-82
2023/12/20 12:27:14;;;;;;;16.10;3.00;;;8.00;99.90;;;;;;6301313;22;20015;-82
2023/12/20 12:29:40;;;;;;;11.30;3.00;;;8.00;99.90;;;;;;6302592;22;20034;-82
2023/12/20 12:32:09;;;;;;;10.77;2.35;;;8.00;99.90;;;;;;6302863;22;20363;-82
2023/12/20 12:34:36;;;;;;;11.65;2.28;;;8.00;99.90;;;;;;6301100;22;20108;-82
2023/12/20 12:37:03;;;;;;;11.55;2.45;;;8.00;99.90;;;;;;6301628;22;20018;-81
2023/12/20 12:39:30;;;;;;;8.50;2.78;;;7.90;99.90;;;;;;6272840;22;20076;-82
2023/12/20 12:41:57;;;;;;;9.73;2.60;;;7.90;99.90;;;;;;6300503;22;20282;-83
2023/12/20 12:44:24;;;;;;;11.57;3.45;;;7.90;99.90;;;;;;6302893;22;20073;-83